createdAt,value
2022-08-23T00:03:01.194Z,98202.00
2022-08-23T00:08:06.515Z,98192.00
2022-08-23T00:13:09.947Z,98196.00
2022-08-23T00:18:14.572Z,98189.00
2022-08-23T00:23:17.856Z,98196.00
2022-08-23T00:28:20.609Z,98196.00
2022-08-23T00:33:23.602Z,98191.00
2022-08-23T00:38:33.162Z,98197.00
2022-08-23T00:43:59.933Z,98196.00
2022-08-23T00:49:07.419Z,98194.00
2022-08-23T00:54:11.413Z,98196.00
2022-08-23T00:59:14.191Z,98195.00
2022-08-23T01:04:18.076Z,98188.00
2022-08-23T01:09:22.395Z,98190.00
2022-08-23T01:14:28.016Z,98190.00
2022-08-23T01:19:39.577Z,98184.00
2022-08-23T01:25:05.940Z,98188.00
2022-08-23T01:30:11.941Z,98193.00
2022-08-23T01:35:16.857Z,98192.00
2022-08-23T01:40:20.256Z,98181.00
2022-08-23T01:45:23.198Z,98191.00
2022-08-23T01:50:27.511Z,98186.00
2022-08-23T01:55:30.825Z,98187.00
2022-08-23T02:00:37.016Z,98177.00
2022-08-23T02:05:41.672Z,98183.00
2022-08-23T02:10:46.613Z,98182.00
2022-08-23T02:15:51.588Z,98194.00
2022-08-23T02:20:54.896Z,98183.00
2022-08-23T02:25:57.868Z,98192.00
2022-08-23T02:31:01.140Z,98187.00
2022-08-23T02:36:06.821Z,98188.00
2022-08-23T02:41:09.948Z,98196.00
2022-08-23T02:46:13.135Z,98199.00
2022-08-23T02:51:16.977Z,98200.00
2022-08-23T02:56:21.591Z,98197.00
2022-08-23T03:01:35.391Z,98203.00
2022-08-23T03:06:51.324Z,98203.00
2022-08-23T03:11:54.324Z,98213.00
2022-08-23T03:16:58.375Z,98207.00
2022-08-23T03:22:02.380Z,98216.00
2022-08-23T03:27:07.101Z,98219.00
2022-08-23T03:32:10.142Z,98222.00
2022-08-23T03:37:14.706Z,98214.00
2022-08-23T03:42:17.711Z,98220.00
2022-08-23T03:47:23.930Z,98218.00
2022-08-23T03:52:27.498Z,98224.00
2022-08-23T03:57:30.461Z,98236.00
2022-08-23T04:02:33.318Z,98245.00
2022-08-23T04:07:37.822Z,98240.00
2022-08-23T04:12:41.974Z,98248.00
2022-08-23T04:17:50.306Z,98233.00
2022-08-23T04:22:55.063Z,98233.00
2022-08-23T04:28:00.909Z,98243.00
2022-08-23T04:33:10.634Z,98237.00
2022-08-23T04:38:24.234Z,98243.00
2022-08-23T04:43:28.742Z,98239.00
2022-08-23T04:48:31.778Z,98251.00
2022-08-23T04:53:36.242Z,98252.00
2022-08-23T04:59:14.009Z,98257.00
2022-08-23T05:04:20.763Z,98252.00
2022-08-23T05:09:25.287Z,98259.00
2022-08-23T05:14:28.514Z,98275.00
2022-08-23T05:19:31.384Z,98273.00
2022-08-23T05:24:34.336Z,98278.00
2022-08-23T05:29:38.023Z,98286.00
2022-08-23T05:34:41.047Z,98284.00
2022-08-23T05:39:47.013Z,98291.00
2022-08-23T05:44:49.786Z,98282.00
2022-08-23T05:49:55.729Z,98283.00
2022-08-23T05:54:59.846Z,98289.00
2022-08-23T06:00:37.289Z,98290.00
2022-08-23T06:05:43.514Z,98282.00
2022-08-23T06:10:47.587Z,98287.00
2022-08-23T06:16:00.395Z,98292.00
2022-08-23T06:21:18.540Z,98299.00
2022-08-23T06:26:28.055Z,98302.00
2022-08-23T06:31:47.342Z,98303.00
2022-08-23T06:36:56.584Z,98304.00
2022-08-23T06:42:37.423Z,98305.00
2022-08-23T06:47:41.044Z,98309.00
2022-08-23T06:52:46.585Z,98315.00
2022-08-23T06:57:59.441Z,98318.00
2022-08-23T07:03:37.873Z,98317.00
2022-08-23T07:09:16.266Z,98320.00
2022-08-23T07:14:21.955Z,98322.00
2022-08-23T07:19:28.969Z,98323.00
2022-08-23T07:24:33.967Z,98330.00
2022-08-23T07:29:39.886Z,98329.00
2022-08-23T07:34:44.161Z,98340.00
2022-08-23T07:39:47.142Z,98329.00
2022-08-23T07:44:49.958Z,98335.00
2022-08-23T07:49:57.372Z,98325.00
2022-08-23T07:55:00.445Z,98335.00
2022-08-23T08:00:22.955Z,98335.00
2022-08-23T08:05:36.661Z,98330.00
2022-08-23T08:10:41.714Z,98335.00
2022-08-23T08:15:44.621Z,98334.00
2022-08-23T08:20:51.382Z,98344.00
2022-08-23T08:26:05.806Z,98339.00
2022-08-23T08:31:10.868Z,98345.00
2022-08-23T08:36:41.882Z,98344.00
2022-08-23T08:42:12.021Z,98354.00
2022-08-23T08:47:30.260Z,98347.00
2022-08-23T08:53:01.911Z,98351.00
2022-08-23T08:58:49.418Z,98346.00
2022-08-23T09:03:53.097Z,98355.00
2022-08-23T09:09:16.006Z,98349.00
2022-08-23T09:14:55.137Z,98349.00
2022-08-23T09:20:01.784Z,98348.00
2022-08-23T09:25:10.227Z,98354.00
2022-08-23T09:30:21.821Z,98352.00
2022-08-23T09:35:26.565Z,98347.00
2022-08-23T09:40:46.482Z,98349.00
2022-08-23T09:45:51.021Z,98358.00
2022-08-23T09:51:03.246Z,98349.00
2022-08-23T09:56:26.546Z,98352.00
2022-08-23T10:01:38.878Z,98353.00
2022-08-23T10:06:48.194Z,98355.00
2022-08-23T10:11:51.335Z,98363.00
2022-08-23T10:17:12.534Z,98358.00
2022-08-23T10:22:24.619Z,98358.00
2022-08-23T10:28:17.751Z,98362.00
2022-08-23T10:33:47.075Z,98349.00
2022-08-23T10:39:11.705Z,98357.00
2022-08-23T10:44:27.971Z,98353.00
2022-08-23T10:49:34.128Z,98338.00
2022-08-23T10:54:47.286Z,98343.00
2022-08-23T10:59:54.114Z,98349.00
2022-08-23T11:05:03.909Z,98357.00
2022-08-23T11:10:56.832Z,98351.00
2022-08-23T11:16:14.252Z,98353.00
2022-08-23T11:21:18.997Z,98351.00
2022-08-23T11:26:28.536Z,98348.00
2022-08-23T11:31:43.181Z,98352.00
2022-08-23T11:37:18.705Z,98356.00
2022-08-23T11:42:23.237Z,98364.00
2022-08-23T11:47:45.163Z,98359.00
2022-08-23T11:53:02.863Z,98362.00
2022-08-23T11:58:26.062Z,98364.00
2022-08-23T12:03:36.785Z,98376.00
2022-08-23T12:08:45.794Z,98370.00
2022-08-23T12:13:59.655Z,98376.00
2022-08-23T12:19:06.852Z,98385.00
2022-08-23T12:24:22.981Z,98382.00
2022-08-23T12:29:34.142Z,98386.00
2022-08-23T12:35:19.163Z,98387.00
2022-08-23T12:40:43.875Z,98384.00
2022-08-23T12:45:50.825Z,98373.00
2022-08-23T12:51:10.733Z,98374.00
2022-08-23T12:56:22.839Z,98368.00
2022-08-23T13:01:39.087Z,98366.00
2022-08-23T13:06:49.514Z,98361.00
2022-08-23T13:11:53.247Z,98359.00
2022-08-23T13:16:56.165Z,98354.00
2022-08-23T13:22:23.533Z,98353.00
2022-08-23T13:27:35.274Z,98362.00
2022-08-23T13:32:41.802Z,98364.00
2022-08-23T13:37:47.534Z,98353.00
2022-08-23T13:43:05.660Z,98363.00
2022-08-23T13:48:18.852Z,98353.00
2022-08-23T13:53:22.450Z,98350.00
2022-08-23T13:58:34.002Z,98354.00
2022-08-23T14:03:36.866Z,98353.00
2022-08-23T14:08:39.819Z,98353.00
2022-08-23T14:13:45.841Z,98353.00
2022-08-23T14:24:11.261Z,98341.00
2022-08-23T14:29:15.511Z,98339.00
2022-08-23T14:34:18.686Z,98339.00
2022-08-23T14:39:22.721Z,98342.00
2022-08-23T14:44:29.003Z,98345.00
2022-08-23T14:49:36.224Z,98347.00
2022-08-23T14:54:39.125Z,98348.00
2022-08-23T14:59:42.009Z,98345.00
2022-08-23T15:04:44.722Z,98348.00
2022-08-23T15:09:49.904Z,98347.00
2022-08-23T15:14:53.569Z,98340.00
2022-08-23T15:19:56.387Z,98349.00
2022-08-23T15:24:59.117Z,98341.00
2022-08-23T15:30:02.058Z,98331.00
2022-08-23T15:35:05.397Z,98342.00
2022-08-23T15:40:09.210Z,98341.00
2022-08-23T15:45:12.505Z,98335.00
2022-08-23T15:50:16.675Z,98348.00
2022-08-23T15:55:21.173Z,98335.00
2022-08-23T16:00:24.981Z,98347.00
2022-08-23T16:05:27.726Z,98343.00
2022-08-23T16:10:30.515Z,98336.00
2022-08-23T16:15:33.281Z,98337.00
2022-08-23T16:20:36.222Z,98332.00
2022-08-23T16:25:41.493Z,98333.00
2022-08-23T16:30:44.271Z,98326.00
2022-08-23T16:35:47.481Z,98343.00
2022-08-23T16:40:50.249Z,98346.00
2022-08-23T16:45:53.170Z,98343.00
2022-08-23T16:50:55.934Z,98347.00
2022-08-23T16:55:58.763Z,98339.00
2022-08-23T17:01:01.495Z,98335.00
2022-08-23T17:06:04.405Z,98343.00
2022-08-23T17:11:10.491Z,98346.00
2022-08-23T17:16:13.341Z,98356.00
2022-08-23T17:21:16.363Z,98359.00
2022-08-23T17:26:19.698Z,98358.00
2022-08-23T17:31:23.195Z,98355.00
2022-08-23T17:36:37.826Z,98363.00
2022-08-23T17:41:45.207Z,98368.00
2022-08-23T17:46:49.101Z,98375.00
2022-08-23T17:51:51.814Z,98385.00
2022-08-23T17:56:54.956Z,98389.00
2022-08-23T18:01:58.081Z,98398.00
2022-08-23T18:07:01.273Z,98403.00
2022-08-23T18:12:04.405Z,98417.00
2022-08-23T18:17:07.218Z,98414.00
2022-08-23T18:22:10.006Z,98424.00
2022-08-23T18:27:33.052Z,98436.00
2022-08-23T18:32:35.975Z,98445.00
2022-08-23T18:37:38.977Z,98437.00
2022-08-23T18:42:41.835Z,98440.00
2022-08-23T18:47:44.631Z,98458.00
2022-08-23T18:52:47.482Z,98464.00
2022-08-23T18:57:50.200Z,98455.00
2022-08-23T19:02:53.331Z,98471.00
2022-08-23T19:07:56.612Z,98471.00
2022-08-23T19:13:00.029Z,98474.00
2022-08-23T19:18:03.403Z,98477.00
2022-08-23T19:23:06.267Z,98480.00
2022-08-23T19:28:09.169Z,98494.00
2022-08-23T19:33:12.393Z,98491.00
2022-08-23T19:38:15.192Z,98500.00
2022-08-23T19:43:18.415Z,98502.00
2022-08-23T19:48:21.759Z,98496.00
2022-08-23T19:53:24.570Z,98501.00
2022-08-23T19:58:30.221Z,98501.00
2022-08-23T20:03:33.001Z,98504.00
2022-08-23T20:08:36.298Z,98504.00
2022-08-23T20:13:38.993Z,98501.00
2022-08-23T20:18:42.765Z,98509.00
2022-08-23T20:24:04.444Z,98512.00
2022-08-23T20:29:12.341Z,98518.00
2022-08-23T20:34:15.159Z,98504.00
2022-08-23T20:39:23.227Z,98502.00
2022-08-23T20:44:27.031Z,98509.00
2022-08-23T20:49:29.733Z,98508.00
2022-08-23T20:54:33.342Z,98501.00
2022-08-23T20:59:38.114Z,98498.00
2022-08-23T21:04:43.764Z,98498.00
2022-08-23T21:09:48.835Z,98507.00
2022-08-23T21:14:51.616Z,98509.00
2022-08-23T21:19:54.502Z,98504.00
2022-08-23T21:24:57.284Z,98505.00
2022-08-23T21:30:00.172Z,98510.00
2022-08-23T21:35:03.393Z,98504.00
2022-08-23T21:40:07.067Z,98503.00
2022-08-23T21:45:10.201Z,98505.00
2022-08-23T21:50:13.071Z,98500.00
2022-08-23T21:55:16.151Z,98503.00
2022-08-23T22:00:18.987Z,98503.00
2022-08-23T22:05:21.697Z,98507.00
2022-08-23T22:10:24.926Z,98498.00
2022-08-23T22:15:27.792Z,98487.00
2022-08-23T22:20:31.747Z,98498.00
2022-08-23T22:25:34.508Z,98493.00
2022-08-23T22:30:37.314Z,98488.00
2022-08-23T22:35:40.174Z,98488.00
2022-08-23T22:40:50.801Z,98495.00
2022-08-23T22:46:00.854Z,98483.00
2022-08-23T22:51:08.662Z,98479.00
2022-08-23T22:56:13.195Z,98477.00
2022-08-23T23:01:37.581Z,98474.00
2022-08-23T23:06:40.635Z,98461.00
2022-08-23T23:11:44.486Z,98458.00
2022-08-23T23:16:49.424Z,98457.00
2022-08-23T23:21:56.795Z,98452.00
2022-08-23T23:27:00.613Z,98465.00
2022-08-23T23:32:03.755Z,98465.00
2022-08-23T23:37:06.512Z,98460.00
2022-08-23T23:42:09.275Z,98451.00
2022-08-23T23:47:12.019Z,98456.00
2022-08-23T23:52:14.765Z,98454.00
2022-08-23T23:57:17.766Z,98459.00
